createdAt,value
2017-09-30T00:00:04.532Z,27.77
2017-09-30T00:02:32.810Z,26.00
2017-09-30T00:05:01.067Z,28.30
2017-09-30T00:07:29.404Z,29.20
2017-09-30T00:09:57.662Z,25.50
2017-09-30T00:12:25.927Z,26.47
2017-09-30T00:14:54.998Z,26.03
2017-09-30T00:17:23.254Z,25.87
2017-09-30T00:19:51.498Z,30.97
2017-09-30T00:22:20.546Z,27.63
2017-09-30T00:24:48.811Z,26.17
2017-09-30T00:27:17.082Z,26.53
2017-09-30T00:29:45.339Z,26.30
2017-09-30T00:32:14.376Z,25.80
2017-09-30T00:34:42.629Z,27.60
2017-09-30T00:37:10.890Z,29.23
2017-09-30T00:39:39.913Z,30.57
2017-09-30T00:42:08.209Z,30.40
2017-09-30T00:44:36.533Z,32.33
2017-09-30T00:47:04.798Z,27.93
2017-09-30T00:49:33.663Z,26.17
2017-09-30T00:52:01.935Z,29.20
2017-09-30T00:54:30.206Z,29.57
2017-09-30T00:56:59.192Z,29.53
2017-09-30T00:59:28.231Z,30.17
2017-09-30T01:01:56.474Z,34.60
2017-09-30T01:04:25.530Z,35.37
2017-09-30T01:06:53.799Z,33.50
2017-09-30T01:09:22.169Z,36.07
2017-09-30T01:11:50.490Z,31.83
2017-09-30T01:14:18.729Z,28.80
2017-09-30T01:16:46.988Z,33.13
2017-09-30T01:19:15.246Z,32.60
2017-09-30T01:21:44.258Z,32.03
2017-09-30T01:24:14.294Z,32.20
2017-09-30T01:26:43.301Z,31.40
2017-09-30T01:29:11.568Z,35.10
2017-09-30T01:31:39.841Z,31.60
2017-09-30T01:34:08.875Z,34.80
2017-09-30T01:36:37.158Z,30.60
2017-09-30T01:39:05.424Z,34.03
2017-09-30T01:41:33.717Z,30.70
2017-09-30T01:44:02.006Z,32.30
2017-09-30T01:46:30.253Z,29.30
2017-09-30T01:48:58.578Z,33.20
2017-09-30T01:51:26.849Z,31.00
2017-09-30T01:53:55.102Z,32.57
2017-09-30T01:56:23.359Z,32.27
2017-09-30T01:58:52.387Z,35.07
2017-09-30T02:01:20.635Z,37.73
2017-09-30T02:03:49.674Z,38.10
2017-09-30T02:06:17.928Z,38.53
2017-09-30T02:08:46.996Z,37.73
2017-09-30T02:11:15.343Z,37.83
2017-09-30T02:13:43.621Z,39.27
2017-09-30T02:16:11.894Z,40.33
2017-09-30T02:18:40.142Z,39.10
2017-09-30T02:21:09.173Z,40.60
2017-09-30T02:23:37.414Z,40.70
2017-09-30T02:26:06.470Z,40.30
2017-09-30T02:28:35.666Z,38.97
2017-09-30T02:31:03.937Z,40.90
2017-09-30T02:33:32.181Z,40.43
2017-09-30T02:36:01.223Z,36.30
2017-09-30T02:38:29.527Z,34.50
2017-09-30T02:40:57.791Z,35.50
2017-09-30T02:43:26.046Z,34.67
2017-09-30T02:45:54.314Z,37.27
2017-09-30T02:48:23.335Z,37.30
2017-09-30T02:50:52.462Z,36.20
2017-09-30T02:53:20.722Z,38.97
2017-09-30T02:55:49.906Z,40.70
2017-09-30T02:58:18.169Z,38.47
2017-09-30T03:00:47.305Z,39.50
2017-09-30T03:03:17.127Z,39.10
2017-09-30T03:05:45.402Z,40.87
2017-09-30T03:08:13.689Z,39.80
2017-09-30T03:10:41.947Z,38.30
2017-09-30T03:13:10.254Z,39.57
2017-09-30T03:15:38.540Z,40.07
2017-09-30T03:18:06.821Z,39.50
2017-09-30T03:20:35.101Z,38.13
2017-09-30T03:23:03.370Z,38.67
2017-09-30T03:25:32.499Z,41.33
2017-09-30T03:28:00.767Z,38.10
2017-09-30T03:30:29.076Z,42.33
2017-09-30T03:32:58.854Z,42.03
2017-09-30T03:35:27.102Z,39.43
2017-09-30T03:37:56.238Z,36.90
2017-09-30T03:40:25.038Z,36.07
2017-09-30T03:42:53.342Z,38.77
2017-09-30T03:45:21.727Z,43.17
2017-09-30T03:47:49.995Z,38.50
2017-09-30T03:50:18.264Z,40.47
2017-09-30T03:52:46.539Z,39.23
2017-09-30T03:55:14.791Z,38.00
2017-09-30T03:57:43.874Z,42.43
2017-09-30T04:00:12.211Z,41.20
2017-09-30T04:02:40.474Z,42.33
2017-09-30T04:05:08.727Z,41.03
2017-09-30T04:07:37.809Z,39.87
2017-09-30T04:10:06.040Z,40.30
2017-09-30T04:12:34.339Z,41.47
2017-09-30T04:15:02.622Z,38.37
2017-09-30T04:17:30.927Z,40.30
2017-09-30T04:19:59.942Z,38.97
2017-09-30T04:22:28.209Z,42.70
2017-09-30T04:24:56.552Z,40.87
2017-09-30T04:27:24.827Z,38.90
2017-09-30T04:29:53.685Z,44.10
2017-09-30T04:32:22.742Z,43.17
2017-09-30T04:34:51.009Z,43.10
2017-09-30T04:37:19.253Z,39.83
2017-09-30T04:39:48.298Z,40.30
2017-09-30T04:42:16.578Z,39.30
2017-09-30T04:44:44.838Z,41.93
2017-09-30T04:47:13.085Z,39.37
2017-09-30T04:49:41.350Z,36.60
2017-09-30T04:52:09.711Z,43.10
2017-09-30T04:54:38.008Z,38.97
2017-09-30T04:57:06.255Z,45.00
2017-09-30T04:59:34.531Z,41.80
2017-09-30T05:02:02.837Z,37.10
2017-09-30T05:04:31.085Z,39.93
2017-09-30T05:06:59.340Z,42.87
2017-09-30T05:09:28.534Z,39.60
2017-09-30T05:11:57.556Z,38.50
2017-09-30T05:14:26.587Z,43.43
2017-09-30T05:16:54.839Z,42.70
2017-09-30T05:19:23.146Z,40.87
2017-09-30T05:21:51.394Z,38.90
2017-09-30T05:24:19.662Z,42.57
2017-09-30T05:26:48.705Z,39.33
2017-09-30T05:29:17.016Z,44.77
2017-09-30T05:31:45.261Z,39.17
2017-09-30T05:34:13.547Z,41.00
2017-09-30T05:36:41.801Z,40.00
2017-09-30T05:39:10.210Z,43.57
2017-09-30T05:41:38.515Z,39.07
2017-09-30T05:44:06.929Z,47.07
2017-09-30T05:46:35.288Z,42.23
2017-09-30T05:49:03.581Z,36.80
2017-09-30T05:51:31.817Z,38.33
2017-09-30T05:54:01.063Z,39.77
2017-09-30T05:56:29.339Z,39.37
2017-09-30T05:58:58.362Z,36.03
2017-09-30T06:01:27.403Z,40.43
2017-09-30T06:03:55.680Z,37.97
2017-09-30T06:06:24.206Z,43.03
2017-09-30T06:08:52.428Z,37.07
2017-09-30T06:11:20.695Z,47.07
2017-09-30T06:13:48.977Z,37.90
2017-09-30T06:16:17.246Z,41.53
2017-09-30T06:18:46.294Z,38.70
2017-09-30T06:21:14.555Z,40.80
2017-09-30T06:23:42.845Z,34.87
2017-09-30T06:26:11.133Z,37.10
2017-09-30T06:28:39.370Z,33.97
2017-09-30T06:31:08.442Z,35.63
2017-09-30T06:33:36.683Z,37.93
2017-09-30T06:36:04.967Z,35.70
2017-09-30T06:38:33.210Z,39.03
2017-09-30T06:41:01.487Z,40.60
2017-09-30T06:43:30.506Z,37.90
2017-09-30T06:45:58.944Z,38.07
2017-09-30T06:48:27.167Z,39.37
2017-09-30T06:50:55.474Z,37.80
2017-09-30T06:53:23.730Z,38.50
2017-09-30T06:55:52.082Z,39.60
2017-09-30T06:58:21.164Z,40.00
2017-09-30T07:00:49.394Z,40.70
2017-09-30T07:03:17.663Z,39.63
2017-09-30T07:05:45.921Z,42.67
2017-09-30T07:08:14.200Z,38.93
2017-09-30T07:10:42.546Z,40.67
2017-09-30T07:13:10.831Z,39.50
2017-09-30T07:15:39.087Z,32.20
2017-09-30T07:18:07.354Z,36.17
2017-09-30T07:20:35.611Z,38.70
2017-09-30T07:23:04.761Z,36.73
2017-09-30T07:25:33.049Z,36.70
2017-09-30T07:28:01.362Z,40.30
2017-09-30T07:30:29.606Z,33.60
2017-09-30T07:32:57.890Z,32.93
2017-09-30T07:35:26.180Z,34.63
2017-09-30T07:37:54.458Z,33.57
2017-09-30T07:40:22.741Z,32.60
2017-09-30T07:42:51.001Z,34.07
2017-09-30T07:45:19.266Z,37.00
2017-09-30T07:47:47.587Z,32.20
2017-09-30T07:50:15.858Z,33.47
2017-09-30T07:52:44.231Z,33.33
2017-09-30T07:55:12.482Z,35.33
2017-09-30T07:57:41.848Z,39.80
2017-09-30T08:00:10.117Z,33.27
2017-09-30T08:02:38.383Z,36.30
2017-09-30T08:05:06.652Z,36.47
2017-09-30T08:07:34.956Z,36.80
2017-09-30T08:10:03.226Z,37.07
2017-09-30T08:12:31.484Z,35.30
2017-09-30T08:14:59.797Z,33.63
2017-09-30T08:17:28.049Z,34.37
2017-09-30T08:19:56.367Z,35.53
2017-09-30T08:22:24.617Z,38.10
2017-09-30T08:24:52.922Z,36.60
2017-09-30T08:27:21.200Z,35.60
2017-09-30T08:29:49.483Z,34.37
2017-09-30T08:32:17.777Z,34.27
2017-09-30T08:34:46.065Z,33.87
2017-09-30T08:37:14.359Z,34.20
2017-09-30T08:39:42.650Z,40.80
2017-09-30T08:42:10.933Z,38.00
2017-09-30T08:44:39.237Z,35.33
2017-09-30T08:47:08.285Z,37.93
2017-09-30T08:49:36.587Z,34.53
2017-09-30T08:52:04.858Z,37.77
2017-09-30T08:54:33.150Z,35.87
2017-09-30T08:57:01.420Z,32.13
2017-09-30T08:59:29.728Z,35.50
2017-09-30T09:01:58.004Z,33.77
2017-09-30T09:04:26.289Z,35.47
2017-09-30T09:06:55.332Z,36.27
2017-09-30T09:09:23.617Z,34.20
2017-09-30T09:11:51.899Z,37.73
2017-09-30T09:14:20.218Z,36.90
2017-09-30T09:16:48.557Z,33.00
2017-09-30T09:19:16.888Z,32.03
2017-09-30T09:21:45.183Z,26.80
2017-09-30T09:24:14.228Z,28.83
2017-09-30T09:26:42.571Z,29.80
2017-09-30T09:29:11.612Z,28.10
2017-09-30T09:31:39.899Z,30.37
2017-09-30T09:34:08.169Z,28.70
2017-09-30T09:36:36.553Z,30.53
2017-09-30T09:39:04.845Z,30.07
2017-09-30T09:41:33.148Z,30.23
2017-09-30T09:44:01.441Z,30.97
2017-09-30T09:46:30.500Z,28.37
2017-09-30T09:48:58.775Z,27.97
2017-09-30T09:51:27.055Z,26.23
2017-09-30T09:53:55.314Z,27.40
2017-09-30T09:56:23.612Z,31.73
2017-09-30T09:58:51.882Z,28.37
2017-09-30T10:01:20.932Z,26.07
2017-09-30T10:03:49.315Z,28.23
2017-09-30T10:06:17.593Z,23.33
2017-09-30T10:08:45.865Z,27.70
2017-09-30T10:11:14.171Z,24.17
2017-09-30T10:13:42.427Z,23.13
2017-09-30T10:16:10.788Z,27.00
2017-09-30T10:18:39.067Z,26.10
2017-09-30T10:21:07.398Z,22.90
2017-09-30T10:23:35.664Z,26.97
2017-09-30T10:26:03.910Z,22.97
2017-09-30T10:28:32.229Z,26.47
2017-09-30T10:31:00.501Z,22.43
2017-09-30T10:33:28.797Z,23.40
2017-09-30T10:35:57.078Z,22.30
2017-09-30T10:38:25.469Z,22.03
2017-09-30T10:40:53.823Z,23.80
2017-09-30T10:43:22.214Z,20.43
2017-09-30T10:45:50.498Z,22.13
2017-09-30T10:48:18.769Z,21.93
2017-09-30T10:50:47.038Z,22.27
2017-09-30T10:53:15.320Z,20.63
2017-09-30T10:55:43.624Z,21.73
2017-09-30T10:58:11.929Z,19.63
2017-09-30T11:00:40.183Z,20.73
2017-09-30T11:03:09.269Z,23.27
2017-09-30T11:05:37.522Z,21.70
2017-09-30T11:08:05.793Z,22.77
2017-09-30T11:10:34.046Z,24.90
2017-09-30T11:13:02.343Z,19.97
2017-09-30T11:15:31.388Z,20.40
2017-09-30T11:17:59.659Z,26.57
2017-09-30T11:20:27.912Z,19.50
2017-09-30T11:22:56.973Z,20.97
2017-09-30T11:25:25.227Z,21.93
2017-09-30T11:27:53.475Z,18.67
2017-09-30T11:30:22.607Z,19.73
2017-09-30T11:32:50.894Z,18.60
2017-09-30T11:35:19.274Z,21.17
2017-09-30T11:37:47.554Z,20.03
2017-09-30T11:40:15.867Z,19.87
2017-09-30T11:42:45.658Z,19.23
2017-09-30T11:45:13.940Z,17.80
2017-09-30T11:47:42.215Z,25.80
2017-09-30T11:50:10.509Z,21.37
2017-09-30T11:52:38.778Z,20.00
2017-09-30T11:55:07.106Z,19.23
2017-09-30T11:57:35.384Z,19.90
2017-09-30T12:00:03.675Z,21.77
2017-09-30T12:02:32.021Z,18.13
2017-09-30T12:05:00.406Z,17.50
2017-09-30T12:07:28.700Z,17.80
2017-09-30T12:09:56.995Z,18.47
2017-09-30T12:12:26.035Z,16.83
2017-09-30T12:14:54.434Z,17.00
2017-09-30T12:17:22.762Z,15.80
2017-09-30T12:19:51.039Z,15.47
2017-09-30T12:22:19.286Z,17.17
2017-09-30T12:24:47.558Z,20.60
2017-09-30T12:27:15.810Z,17.93
2017-09-30T12:29:44.843Z,15.63
2017-09-30T12:32:13.109Z,16.53
2017-09-30T12:34:41.622Z,18.23
2017-09-30T12:37:10.109Z,16.57
2017-09-30T12:39:38.378Z,14.97
2017-09-30T12:42:06.619Z,15.70
2017-09-30T12:44:34.946Z,15.47
2017-09-30T12:47:03.209Z,15.87
2017-09-30T12:49:31.479Z,20.07
2017-09-30T12:51:59.783Z,16.07
2017-09-30T12:54:28.049Z,17.63
2017-09-30T12:56:56.303Z,17.10
2017-09-30T12:59:25.340Z,14.67
2017-09-30T13:01:53.614Z,15.53
2017-09-30T13:04:21.891Z,16.80
2017-09-30T13:06:50.138Z,31.80
2017-09-30T13:09:19.188Z,17.40
2017-09-30T13:11:47.467Z,16.83
2017-09-30T13:14:15.718Z,21.63
2017-09-30T13:16:43.999Z,18.73
2017-09-30T13:19:12.253Z,19.73
2017-09-30T13:21:40.589Z,17.70
2017-09-30T13:24:08.881Z,19.03
2017-09-30T13:26:37.141Z,18.00
2017-09-30T13:29:06.379Z,18.87
2017-09-30T13:31:34.783Z,17.90
2017-09-30T13:34:03.016Z,22.77
2017-09-30T13:36:31.283Z,19.03
2017-09-30T13:38:59.567Z,17.63
2017-09-30T13:41:28.811Z,22.20
2017-09-30T13:43:57.050Z,18.00
2017-09-30T13:46:25.326Z,19.30
2017-09-30T13:48:53.587Z,18.20
2017-09-30T13:51:22.634Z,21.23
2017-09-30T13:53:50.953Z,19.67
2017-09-30T13:56:19.209Z,18.13
2017-09-30T13:58:47.506Z,20.17
2017-09-30T14:01:15.879Z,17.70
2017-09-30T14:03:44.121Z,17.00
2017-09-30T14:06:12.403Z,16.80
2017-09-30T14:08:40.652Z,18.50
2017-09-30T14:11:08.930Z,16.50
2017-09-30T14:13:37.175Z,18.30
2017-09-30T14:16:05.462Z,6.70
2017-09-30T14:18:33.718Z,2.27
2017-09-30T14:21:02.056Z,1.63
2017-09-30T14:23:30.301Z,1.80
2017-09-30T14:25:58.554Z,2.20
2017-09-30T14:28:27.620Z,2.40
2017-09-30T14:30:57.383Z,2.60
2017-09-30T14:33:25.681Z,2.33
2017-09-30T14:35:54.725Z,3.60
2017-09-30T14:38:24.878Z,4.53
2017-09-30T14:40:53.128Z,5.20
2017-09-30T14:43:21.374Z,3.20
2017-09-30T14:45:49.634Z,3.40
2017-09-30T14:48:17.883Z,4.03
2017-09-30T14:50:46.911Z,2.83
2017-09-30T14:53:15.155Z,3.20
2017-09-30T14:55:44.934Z,11.00
2017-09-30T14:58:13.206Z,3.03
2017-09-30T15:00:41.470Z,3.40
2017-09-30T15:03:09.708Z,4.87
2017-09-30T15:05:37.978Z,4.87
2017-09-30T15:08:07.726Z,4.37
2017-09-30T15:10:36.731Z,3.00
2017-09-30T15:13:05.749Z,3.40
2017-09-30T15:15:33.983Z,3.27
2017-09-30T15:18:02.251Z,3.57
2017-09-30T15:20:30.569Z,3.60
2017-09-30T15:22:59.609Z,2.30
2017-09-30T15:25:27.894Z,2.60
2017-09-30T15:27:56.155Z,2.33
2017-09-30T15:30:24.478Z,1.53
2017-09-30T15:32:52.856Z,2.10
2017-09-30T15:35:21.094Z,2.00
2017-09-30T15:37:49.382Z,2.80
2017-09-30T15:40:17.634Z,2.17
2017-09-30T15:42:46.765Z,2.20
2017-09-30T15:45:15.106Z,4.00
2017-09-30T15:47:44.366Z,1.83
2017-09-30T15:50:12.729Z,2.70
2017-09-30T15:52:41.115Z,2.03
2017-09-30T15:55:09.354Z,3.63
2017-09-30T15:57:38.374Z,2.00
2017-09-30T16:00:06.678Z,2.50
2017-09-30T16:02:34.941Z,1.67
2017-09-30T16:05:03.186Z,1.97
2017-09-30T16:07:31.519Z,2.40
2017-09-30T16:09:59.808Z,2.87
2017-09-30T16:12:28.067Z,2.50
2017-09-30T16:14:56.309Z,1.70
2017-09-30T16:17:26.080Z,2.17
2017-09-30T16:19:54.327Z,2.17
2017-09-30T16:22:23.367Z,1.83
2017-09-30T16:24:51.609Z,2.17
2017-09-30T16:27:20.684Z,2.17
2017-09-30T16:29:49.026Z,2.20
2017-09-30T16:32:17.286Z,2.77
2017-09-30T16:34:45.558Z,7.47
2017-09-30T16:37:14.571Z,5.70
2017-09-30T16:39:42.983Z,1.80
2017-09-30T16:42:11.233Z,2.80
2017-09-30T16:44:39.551Z,2.67
2017-09-30T16:47:07.813Z,1.23
2017-09-30T16:49:36.094Z,1.20
2017-09-30T16:52:04.354Z,1.90
2017-09-30T16:54:32.612Z,1.10
2017-09-30T16:57:01.635Z,1.20
2017-09-30T16:59:29.878Z,1.60
2017-09-30T17:01:58.239Z,0.90
2017-09-30T17:04:26.495Z,3.17
2017-09-30T17:06:55.098Z,1.77
2017-09-30T17:09:23.358Z,1.50
2017-09-30T17:11:51.610Z,1.23
2017-09-30T17:14:20.745Z,1.87
2017-09-30T17:16:48.990Z,1.30
2017-09-30T17:19:18.010Z,3.43
2017-09-30T17:21:46.302Z,1.50
2017-09-30T17:24:14.563Z,2.60
2017-09-30T17:26:42.868Z,1.80
2017-09-30T17:29:11.152Z,1.47
2017-09-30T17:31:39.423Z,1.90
2017-09-30T17:34:07.679Z,2.23
2017-09-30T17:36:36.690Z,1.50
2017-09-30T17:39:04.947Z,2.10
2017-09-30T17:41:34.026Z,2.23
2017-09-30T17:44:02.271Z,3.80
2017-09-30T17:46:30.553Z,3.80
2017-09-30T17:48:58.808Z,2.23
2017-09-30T17:51:27.839Z,4.17
2017-09-30T17:53:56.106Z,2.40
2017-09-30T17:56:25.071Z,2.77
2017-09-30T17:58:54.149Z,4.78
2017-09-30T18:01:22.400Z,2.20
2017-09-30T18:03:50.672Z,4.63
2017-09-30T18:06:18.994Z,2.60
2017-09-30T18:08:47.256Z,3.37
2017-09-30T18:11:15.516Z,3.47
2017-09-30T18:13:43.762Z,8.63
2017-09-30T18:16:12.883Z,6.70
2017-09-30T18:18:41.146Z,8.63
2017-09-30T18:21:10.157Z,6.70
2017-09-30T18:23:38.422Z,5.83
2017-09-30T18:26:07.473Z,4.20
2017-09-30T18:28:35.714Z,3.73
2017-09-30T18:31:04.013Z,6.53
2017-09-30T18:33:32.268Z,5.40
2017-09-30T18:36:00.509Z,3.13
2017-09-30T18:38:29.571Z,2.53
2017-09-30T18:40:57.899Z,3.20
2017-09-30T18:43:26.298Z,3.40
2017-09-30T18:45:55.326Z,3.43
2017-09-30T18:48:23.612Z,3.60
2017-09-30T18:50:51.975Z,4.50
2017-09-30T18:53:20.251Z,3.97
2017-09-30T18:55:49.261Z,4.50
2017-09-30T18:58:17.514Z,4.17
2017-09-30T19:00:46.555Z,3.60
2017-09-30T19:03:14.803Z,3.23
2017-09-30T19:05:44.129Z,4.03
2017-09-30T19:08:12.369Z,3.93
2017-09-30T19:10:40.663Z,3.73
2017-09-30T19:13:09.742Z,4.80
2017-09-30T19:15:38.740Z,2.90
2017-09-30T19:18:06.968Z,2.80
2017-09-30T19:20:35.243Z,2.70
2017-09-30T19:23:03.482Z,3.37
2017-09-30T19:25:33.248Z,3.07
2017-09-30T19:28:01.487Z,4.50
2017-09-30T19:30:30.520Z,2.03
2017-09-30T19:32:58.803Z,2.30
2017-09-30T19:35:27.062Z,5.70
2017-09-30T19:37:56.077Z,1.47
2017-09-30T19:40:24.577Z,1.93
2017-09-30T19:42:52.857Z,3.07
2017-09-30T19:45:21.197Z,2.23
2017-09-30T19:47:49.517Z,4.20
2017-09-30T19:50:17.808Z,2.03
2017-09-30T19:52:46.111Z,6.97
2017-09-30T19:55:14.368Z,6.00
2017-09-30T19:57:42.644Z,3.00
2017-09-30T20:00:10.930Z,2.83
2017-09-30T20:02:39.168Z,5.37
2017-09-30T20:05:08.231Z,4.23
2017-09-30T20:07:36.483Z,7.77
2017-09-30T20:10:04.743Z,2.17
2017-09-30T20:12:32.986Z,8.80
2017-09-30T20:15:01.236Z,3.57
2017-09-30T20:17:29.470Z,2.50
2017-09-30T20:19:58.515Z,2.70
2017-09-30T20:22:26.758Z,2.07
2017-09-30T20:24:55.324Z,3.47
2017-09-30T20:27:24.339Z,4.27
2017-09-30T20:29:53.365Z,2.43
2017-09-30T20:32:21.607Z,4.30
2017-09-30T20:34:50.638Z,3.83
2017-09-30T20:37:18.881Z,4.07
2017-09-30T20:39:47.961Z,5.50
2017-09-30T20:42:16.194Z,4.00
2017-09-30T20:44:44.459Z,5.83
2017-09-30T20:47:12.765Z,2.30
2017-09-30T20:49:41.011Z,2.37
2017-09-30T20:52:10.035Z,6.97
2017-09-30T20:54:38.276Z,7.13
2017-09-30T20:57:07.290Z,5.17
2017-09-30T20:59:36.120Z,4.77
2017-09-30T21:02:04.402Z,2.87
2017-09-30T21:04:32.646Z,4.43
2017-09-30T21:07:00.948Z,3.73
2017-09-30T21:09:29.196Z,7.03
2017-09-30T21:11:58.331Z,4.23
2017-09-30T21:14:26.579Z,3.03
2017-09-30T21:16:55.599Z,3.00
2017-09-30T21:19:23.881Z,3.40
2017-09-30T21:21:52.142Z,4.30
2017-09-30T21:24:21.104Z,8.23
2017-09-30T21:26:49.374Z,6.40
2017-09-30T21:29:17.630Z,6.83
2017-09-30T21:31:45.941Z,5.50
2017-09-30T21:34:14.166Z,10.33
2017-09-30T21:36:42.469Z,5.80
2017-09-30T21:39:10.712Z,8.40
2017-09-30T21:41:39.842Z,5.80
2017-09-30T21:44:08.087Z,6.87
2017-09-30T21:46:37.130Z,8.33
2017-09-30T21:49:05.421Z,5.90
2017-09-30T21:51:33.684Z,7.93
2017-09-30T21:54:01.926Z,8.37
2017-09-30T21:56:30.950Z,5.60
2017-09-30T21:58:59.195Z,6.97
2017-09-30T22:01:28.538Z,6.97
2017-09-30T22:03:56.831Z,7.97
2017-09-30T22:06:25.111Z,7.43
2017-09-30T22:08:53.359Z,10.53
2017-09-30T22:11:22.387Z,6.30
2017-09-30T22:13:50.673Z,6.10
2017-09-30T22:16:19.701Z,6.90
2017-09-30T22:18:47.945Z,6.57
2017-09-30T22:21:16.202Z,7.63
2017-09-30T22:23:44.448Z,6.10
2017-09-30T22:26:15.105Z,7.03
2017-09-30T22:28:44.144Z,5.80
2017-09-30T22:31:12.468Z,7.63
2017-09-30T22:33:40.803Z,7.23
2017-09-30T22:36:09.074Z,7.30
2017-09-30T22:38:37.332Z,9.63
2017-09-30T22:41:06.343Z,8.87
2017-09-30T22:43:34.626Z,6.67
2017-09-30T22:46:02.863Z,7.17
2017-09-30T22:48:32.626Z,7.67
2017-09-30T22:51:01.260Z,4.10
2017-09-30T22:53:29.512Z,4.20
2017-09-30T22:55:57.760Z,6.40
2017-09-30T22:58:26.015Z,4.73
2017-09-30T23:00:55.130Z,5.43
2017-09-30T23:03:24.160Z,4.47
2017-09-30T23:05:52.396Z,4.53
2017-09-30T23:08:21.442Z,11.67
2017-09-30T23:10:49.686Z,12.13
2017-09-30T23:13:18.827Z,12.73
2017-09-30T23:15:47.083Z,13.63
2017-09-30T23:18:15.382Z,13.47
2017-09-30T23:20:43.622Z,9.83
2017-09-30T23:23:12.658Z,12.97
2017-09-30T23:25:40.906Z,15.17
2017-09-30T23:28:09.985Z,11.37
2017-09-30T23:30:38.235Z,11.53
2017-09-30T23:33:06.502Z,12.90
2017-09-30T23:35:34.828Z,11.70
2017-09-30T23:38:03.069Z,10.17
2017-09-30T23:40:31.331Z,15.77
2017-09-30T23:42:59.598Z,13.60
2017-09-30T23:45:27.927Z,15.43
2017-09-30T23:47:56.196Z,11.33
2017-09-30T23:50:24.437Z,10.50
2017-09-30T23:52:53.503Z,16.27
2017-09-30T23:55:21.771Z,14.03
2017-09-30T23:57:50.047Z,22.93
